createdAt,value
2017-01-16T00:07:49.473Z,0
2017-01-16T00:08:35.375Z,0
2017-01-16T00:09:19.462Z,0
2017-01-16T00:10:03.394Z,0
2017-01-16T00:10:47.404Z,0
2017-01-16T00:11:32.366Z,0
2017-01-16T00:12:19.374Z,0
2017-01-16T00:13:10.392Z,0
2017-01-16T00:13:55.589Z,0
2017-01-16T00:14:37.626Z,0
2017-01-16T00:15:19.689Z,0
2017-01-16T00:16:03.474Z,0
2017-01-16T00:16:48.374Z,0
2017-01-16T00:17:47.457Z,0
2017-01-16T00:26:52.930Z,0
2017-01-16T00:27:41.978Z,0
2017-01-16T00:28:25.360Z,0
2017-01-16T00:29:07.463Z,0
2017-01-16T00:33:13.314Z,0
2017-01-16T00:33:58.286Z,0
2017-01-16T00:34:41.699Z,0
2017-01-16T00:35:22.154Z,0
2017-01-16T00:37:47.689Z,0
2017-01-16T00:38:29.034Z,0
2017-01-16T00:43:55.038Z,0
2017-01-16T00:44:35.526Z,0
2017-01-16T00:45:24.512Z,0
2017-01-16T00:46:12.635Z,0
2017-01-16T00:46:57.453Z,0
2017-01-16T00:47:40.513Z,0
2017-01-16T00:48:21.920Z,0
2017-01-16T00:49:06.023Z,0
2017-01-16T00:52:39.304Z,0
2017-01-16T00:53:24.252Z,0
2017-01-16T00:55:44.925Z,0
2017-01-16T00:56:30.891Z,0
2017-01-16T00:57:13.881Z,0
2017-01-16T00:57:56.889Z,0
2017-01-16T00:58:41.117Z,0
2017-01-16T00:59:25.904Z,0
2017-01-16T01:01:41.103Z,0
2017-01-16T01:02:23.123Z,0
2017-01-16T01:03:09.067Z,0
2017-01-16T01:03:50.083Z,0
2017-01-16T01:04:49.048Z,0
2017-01-16T01:05:31.155Z,0
2017-01-16T01:07:51.352Z,0
2017-01-16T01:08:31.689Z,0
2017-01-16T01:09:15.500Z,0
2017-01-16T01:10:06.514Z,0
2017-01-16T01:10:49.487Z,0
2017-01-16T01:11:40.472Z,0
2017-01-16T01:12:26.722Z,0
2017-01-16T01:13:11.421Z,0
2017-01-16T01:13:55.490Z,0
2017-01-16T01:14:40.760Z,0
2017-01-16T01:15:21.278Z,0
2017-01-16T01:17:34.585Z,0
2017-01-16T01:18:16.532Z,0
2017-01-16T01:18:57.022Z,0
2017-01-16T01:19:42.028Z,0
2017-01-16T01:20:22.535Z,0
2017-01-16T01:21:03.612Z,0
2017-01-16T01:21:44.072Z,0
2017-01-16T01:22:30.473Z,0
2017-01-16T01:23:11.932Z,0
2017-01-16T01:23:53.061Z,0
2017-01-16T01:24:37.958Z,0
2017-01-16T01:25:19.187Z,0
2017-01-16T01:26:03.177Z,0
2017-01-16T01:26:45.967Z,0
2017-01-16T01:27:30.068Z,0
2017-01-16T01:28:15.965Z,0
2017-01-16T01:29:01.951Z,0
2017-01-16T01:29:50.020Z,0
2017-01-16T01:30:31.335Z,0
2017-01-16T01:31:14.970Z,0
2017-01-16T01:31:59.035Z,0
2017-01-16T01:32:42.096Z,0
2017-01-16T01:33:27.964Z,0
2017-01-16T01:34:09.981Z,0
2017-01-16T01:34:52.036Z,0
2017-01-16T01:40:18.451Z,0
2017-01-16T01:41:02.970Z,0
2017-01-16T01:41:43.999Z,0
2017-01-16T01:46:07.161Z,0
2017-01-16T01:46:50.211Z,0
2017-01-16T01:47:31.543Z,0
2017-01-16T01:48:17.681Z,0
2017-01-16T01:49:03.780Z,0
2017-01-16T01:49:47.076Z,0
2017-01-16T01:50:27.571Z,0
2017-01-16T01:51:08.896Z,0
2017-01-16T01:51:50.967Z,0
2017-01-16T01:52:31.969Z,0
2017-01-16T01:53:15.181Z,0
2017-01-16T01:54:01.161Z,0
2017-01-16T01:56:33.890Z,0
2017-01-16T01:57:25.771Z,0
2017-01-16T01:58:19.880Z,0
2017-01-16T01:59:03.782Z,0
2017-01-16T01:59:55.864Z,0
2017-01-16T02:00:50.808Z,0
2017-01-16T02:01:31.777Z,0
2017-01-16T02:02:12.267Z,0
2017-01-16T02:02:52.723Z,0
2017-01-16T02:03:34.798Z,0
2017-01-16T02:04:19.125Z,0
2017-01-16T02:06:52.632Z,0
2017-01-16T02:07:42.694Z,0
2017-01-16T02:08:23.979Z,0
2017-01-16T02:10:23.020Z,0
2017-01-16T02:11:04.135Z,0
2017-01-16T02:13:35.418Z,0
2017-01-16T02:14:19.115Z,0
2017-01-16T02:16:34.720Z,0
2017-01-16T02:17:16.071Z,0
2017-01-16T02:17:56.668Z,0
2017-01-16T02:18:37.116Z,0
2017-01-16T02:19:36.784Z,0
2017-01-16T02:20:32.995Z,0
2017-01-16T02:21:14.846Z,0
2017-01-16T02:21:57.794Z,0
2017-01-16T02:22:43.092Z,0
2017-01-16T02:23:27.782Z,0
2017-01-16T02:24:09.856Z,0
2017-01-16T02:24:51.845Z,0
2017-01-16T02:25:32.842Z,0
2017-01-16T02:26:16.055Z,0
2017-01-16T02:26:57.385Z,0
2017-01-16T02:27:38.353Z,0
2017-01-16T02:28:24.269Z,0
2017-01-16T02:30:43.623Z,0
2017-01-16T02:31:29.350Z,0
2017-01-16T02:32:10.535Z,0
2017-01-16T02:32:51.026Z,0
2017-01-16T02:33:45.877Z,0
2017-01-16T02:34:34.859Z,0
2017-01-16T02:35:35.857Z,0
2017-01-16T02:36:18.923Z,0
2017-01-16T02:38:34.440Z,0
2017-01-16T02:39:22.024Z,0
2017-01-16T02:40:06.002Z,0
2017-01-16T02:40:47.011Z,0
2017-01-16T02:41:30.010Z,0
2017-01-16T02:42:14.128Z,0
2017-01-16T02:44:59.583Z,0
2017-01-16T02:45:43.531Z,0
2017-01-16T02:46:24.658Z,0
2017-01-16T02:48:59.834Z,0
2017-01-16T02:49:40.726Z,0
2017-01-16T02:50:24.118Z,0
2017-01-16T02:51:08.129Z,0
2017-01-16T02:51:55.888Z,0
2017-01-16T02:52:49.108Z,0
2017-01-16T02:55:05.374Z,0
2017-01-16T02:57:22.086Z,0
2017-01-16T02:59:48.234Z,0
2017-01-16T03:00:30.799Z,0
2017-01-16T03:01:16.051Z,0
2017-01-16T03:02:00.832Z,0
2017-01-16T03:02:41.889Z,0
2017-01-16T03:03:27.800Z,0
2017-01-16T03:04:10.893Z,0
2017-01-16T03:04:55.829Z,0
2017-01-16T03:05:36.899Z,0
2017-01-16T03:06:21.931Z,0
2017-01-16T03:07:07.821Z,0
2017-01-16T03:07:50.897Z,0
2017-01-16T03:08:35.104Z,0
2017-01-16T03:09:16.445Z,0
2017-01-16T03:09:57.894Z,0
2017-01-16T03:10:38.346Z,0
2017-01-16T03:11:20.420Z,0
2017-01-16T03:13:43.283Z,0
2017-01-16T03:14:35.168Z,0
2017-01-16T03:15:21.092Z,0
2017-01-16T03:31:39.164Z,0
2017-01-16T03:38:48.706Z,0
2017-01-16T03:39:30.881Z,0
2017-01-16T03:40:11.373Z,0
2017-01-16T03:44:20.363Z,0
2017-01-16T03:46:53.644Z,0
2017-01-16T03:47:34.066Z,0
2017-01-16T03:48:16.147Z,0
2017-01-16T03:48:58.471Z,0
2017-01-16T03:49:40.486Z,0
2017-01-16T03:50:23.902Z,0
2017-01-16T03:51:07.911Z,0
2017-01-16T03:56:58.057Z,0
2017-01-16T03:57:43.995Z,0
2017-01-16T03:58:38.928Z,0
2017-01-16T04:03:02.181Z,0
2017-01-16T04:08:54.130Z,0
2017-01-16T04:09:34.570Z,0
2017-01-16T04:10:22.657Z,0
2017-01-16T04:15:41.650Z,0
2017-01-16T04:16:25.559Z,0
2017-01-16T04:17:20.769Z,0
2017-01-16T04:18:01.968Z,0
2017-01-16T04:20:36.934Z,0
2017-01-16T04:23:24.410Z,0
2017-01-16T04:27:17.914Z,0
2017-01-16T04:28:04.986Z,0
2017-01-16T04:28:58.803Z,0
2017-01-16T04:29:40.191Z,0
2017-01-16T04:30:29.782Z,0
2017-01-16T04:31:19.121Z,0
2017-01-16T04:32:09.792Z,0
2017-01-16T04:32:52.788Z,0
2017-01-16T04:33:35.808Z,0
2017-01-16T04:34:17.000Z,0
2017-01-16T04:34:57.465Z,0
2017-01-16T04:35:39.346Z,0
2017-01-16T04:36:19.817Z,0
2017-01-16T04:38:44.567Z,0
2017-01-16T04:39:31.486Z,0
2017-01-16T04:40:18.483Z,0
2017-01-16T04:40:59.784Z,0
2017-01-16T04:41:44.502Z,0
2017-01-16T04:42:31.471Z,0
2017-01-16T04:43:19.728Z,0
2017-01-16T04:45:36.744Z,0
2017-01-16T04:46:18.935Z,0
2017-01-16T04:47:02.053Z,0
2017-01-16T04:47:42.555Z,0
2017-01-16T04:48:24.572Z,0
2017-01-16T04:49:07.653Z,0
2017-01-16T04:49:48.136Z,0
2017-01-16T04:50:29.454Z,0
2017-01-16T04:51:17.364Z,0
2017-01-16T04:52:00.444Z,0
2017-01-16T04:52:43.345Z,0
2017-01-16T04:53:23.794Z,0
2017-01-16T04:54:11.838Z,0
2017-01-16T04:54:54.843Z,0
2017-01-16T04:55:40.248Z,0
2017-01-16T04:56:21.556Z,0
2017-01-16T04:57:03.558Z,0
2017-01-16T04:57:44.843Z,0
2017-01-16T04:58:26.042Z,0
2017-01-16T04:59:06.509Z,0
2017-01-16T04:59:46.981Z,0
2017-01-16T05:00:27.476Z,0
2017-01-16T05:01:07.975Z,0
2017-01-16T05:01:49.239Z,0
2017-01-16T05:02:31.033Z,0
2017-01-16T05:03:11.576Z,0
2017-01-16T05:04:07.339Z,0
2017-01-16T05:04:47.818Z,0
2017-01-16T05:05:28.864Z,0
2017-01-16T05:06:10.156Z,0
2017-01-16T05:06:52.238Z,0
2017-01-16T05:07:34.440Z,0
2017-01-16T05:08:14.917Z,0
2017-01-16T05:08:55.379Z,0
2017-01-16T05:09:50.377Z,0
2017-01-16T05:10:33.424Z,0
2017-01-16T05:11:17.437Z,0
2017-01-16T05:12:12.372Z,0
2017-01-16T05:12:52.817Z,0
2017-01-16T05:13:33.324Z,0
2017-01-16T05:14:14.772Z,0
2017-01-16T05:15:00.375Z,0
2017-01-16T05:15:43.413Z,0
2017-01-16T05:16:23.944Z,0
2017-01-16T05:17:04.387Z,0
2017-01-16T05:17:44.883Z,0
2017-01-16T05:18:25.368Z,0
2017-01-16T05:19:05.831Z,0
2017-01-16T05:19:46.305Z,0
2017-01-16T05:20:26.791Z,0
2017-01-16T05:21:07.284Z,0
2017-01-16T05:21:47.742Z,0
2017-01-16T05:22:28.250Z,0
2017-01-16T05:23:08.708Z,0
2017-01-16T05:23:49.202Z,0
2017-01-16T05:24:29.994Z,0
2017-01-16T05:25:10.442Z,0
2017-01-16T05:25:50.935Z,0
2017-01-16T05:26:31.448Z,0
2017-01-16T05:27:11.932Z,0
2017-01-16T05:27:52.389Z,0
2017-01-16T05:28:32.934Z,0
2017-01-16T05:29:13.383Z,0
2017-01-16T05:29:53.883Z,0
2017-01-16T05:30:34.670Z,0
2017-01-16T05:31:15.099Z,0
2017-01-16T05:31:55.803Z,0
2017-01-16T05:32:36.540Z,0
2017-01-16T05:33:17.276Z,0
2017-01-16T05:33:58.041Z,0
2017-01-16T05:34:38.603Z,0
2017-01-16T05:35:19.105Z,0
2017-01-16T05:35:59.590Z,0
2017-01-16T05:36:40.092Z,0
2017-01-16T05:37:20.619Z,0
2017-01-16T05:38:01.169Z,0
2017-01-16T05:38:41.652Z,0
2017-01-16T05:39:22.143Z,0
2017-01-16T05:40:02.623Z,0
2017-01-16T05:40:43.147Z,0
2017-01-16T05:41:23.614Z,0
2017-01-16T05:42:04.123Z,0
2017-01-16T05:42:44.595Z,0
2017-01-16T05:43:25.107Z,0
2017-01-16T05:44:05.573Z,0
2017-01-16T05:44:46.088Z,0
2017-01-16T05:45:26.553Z,0
2017-01-16T05:46:07.282Z,0
2017-01-16T05:46:48.087Z,0
2017-01-16T05:47:28.888Z,0
2017-01-16T05:48:09.430Z,0
2017-01-16T05:48:49.925Z,0
2017-01-16T05:49:30.407Z,0
2017-01-16T05:50:10.904Z,0
2017-01-16T05:50:51.573Z,0
2017-01-16T05:51:32.782Z,0
2017-01-16T05:52:13.299Z,0
2017-01-16T05:52:53.778Z,0
2017-01-16T05:53:34.437Z,0
2017-01-16T05:54:14.869Z,0
2017-01-16T05:54:55.538Z,0
2017-01-16T05:55:36.100Z,0
2017-01-16T05:56:16.606Z,0
2017-01-16T05:56:57.092Z,0
2017-01-16T05:57:37.607Z,0
2017-01-16T05:58:18.120Z,0
2017-01-16T05:58:58.642Z,0
2017-01-16T05:59:39.107Z,0
2017-01-16T06:00:19.593Z,0
2017-01-16T06:01:00.083Z,0
2017-01-16T06:01:40.540Z,0
2017-01-16T06:02:21.075Z,0
2017-01-16T06:03:01.555Z,0
2017-01-16T06:03:42.016Z,0
2017-01-16T06:04:22.480Z,0
2017-01-16T06:05:02.978Z,0
2017-01-16T06:05:43.439Z,0
2017-01-16T06:06:23.922Z,0
2017-01-16T06:07:04.401Z,0
2017-01-16T06:07:44.878Z,0
2017-01-16T06:08:25.389Z,0
2017-01-16T06:09:05.841Z,0
2017-01-16T06:09:46.331Z,0
2017-01-16T06:10:26.853Z,0
2017-01-16T06:11:07.331Z,0
2017-01-16T06:11:47.836Z,0
2017-01-16T06:12:28.339Z,0
2017-01-16T06:13:08.827Z,0
2017-01-16T06:13:49.302Z,0
2017-01-16T06:14:29.741Z,0
2017-01-16T06:15:10.415Z,0
2017-01-16T06:15:50.902Z,0
2017-01-16T06:16:31.401Z,0
2017-01-16T06:17:11.863Z,0
2017-01-16T06:17:52.349Z,0
2017-01-16T06:18:32.832Z,0
2017-01-16T06:19:13.347Z,0
2017-01-16T06:19:53.811Z,0
2017-01-16T06:20:34.305Z,0
2017-01-16T06:21:14.822Z,0
2017-01-16T06:21:55.319Z,0
2017-01-16T06:22:35.827Z,0
2017-01-16T06:23:16.326Z,0
2017-01-16T06:23:56.850Z,0
2017-01-16T06:24:37.327Z,0
2017-01-16T06:25:17.803Z,0
2017-01-16T06:25:58.293Z,0
2017-01-16T06:26:38.738Z,0
2017-01-16T06:27:19.228Z,0
2017-01-16T06:27:59.759Z,0
2017-01-16T06:28:40.249Z,0
2017-01-16T06:29:20.742Z,0
2017-01-16T06:30:01.261Z,0
2017-01-16T06:30:41.714Z,0
2017-01-16T06:31:22.196Z,0
2017-01-16T06:32:02.646Z,0
2017-01-16T06:32:43.159Z,0
2017-01-16T06:33:23.646Z,0
2017-01-16T06:34:04.078Z,0
2017-01-16T06:34:44.563Z,0
2017-01-16T06:35:25.282Z,0
2017-01-16T06:36:05.758Z,0
2017-01-16T06:36:46.267Z,0
2017-01-16T06:37:26.735Z,0
2017-01-16T06:38:07.258Z,0
2017-01-16T06:38:47.763Z,0
2017-01-16T06:39:28.269Z,0
2017-01-16T06:40:09.645Z,0
2017-01-16T06:40:50.147Z,0
2017-01-16T06:41:30.665Z,0
2017-01-16T06:42:11.136Z,0
2017-01-16T06:42:51.627Z,0
2017-01-16T06:43:32.136Z,0
2017-01-16T06:44:12.622Z,0
2017-01-16T06:44:53.919Z,0
2017-01-16T06:45:34.391Z,0
2017-01-16T06:46:14.881Z,0
2017-01-16T06:46:55.388Z,0
2017-01-16T06:47:35.950Z,0
2017-01-16T06:48:16.455Z,0
2017-01-16T06:48:56.990Z,0
2017-01-16T06:49:37.588Z,0
2017-01-16T06:50:18.045Z,0
2017-01-16T06:50:58.584Z,0
2017-01-16T06:51:39.086Z,0
2017-01-16T06:52:19.626Z,0
2017-01-16T06:53:00.101Z,0
2017-01-16T06:53:41.316Z,0
2017-01-16T06:54:21.907Z,4
2017-01-16T06:55:02.308Z,4
2017-01-16T06:55:42.996Z,8
2017-01-16T06:56:23.463Z,4
2017-01-16T06:57:13.868Z,4
2017-01-16T06:57:56.696Z,4
2017-01-16T06:58:37.211Z,8
2017-01-16T06:59:17.723Z,8
2017-01-16T06:59:58.233Z,8
2017-01-16T07:00:38.724Z,8
2017-01-16T07:01:19.210Z,8
2017-01-16T07:01:59.773Z,8
2017-01-16T07:02:40.281Z,8
2017-01-16T07:03:20.764Z,12
2017-01-16T07:04:01.281Z,8
2017-01-16T07:04:41.770Z,8
2017-01-16T07:05:22.309Z,12
2017-01-16T07:06:02.768Z,12
2017-01-16T07:06:43.263Z,12
2017-01-16T07:07:23.752Z,12
2017-01-16T07:08:04.211Z,16
2017-01-16T07:08:44.723Z,16
2017-01-16T07:09:25.316Z,16
2017-01-16T07:10:05.748Z,16
2017-01-16T07:10:46.321Z,16
2017-01-16T07:11:26.775Z,20
2017-01-16T07:12:08.267Z,20
2017-01-16T07:12:48.704Z,24
2017-01-16T07:13:29.286Z,28
2017-01-16T07:14:10.404Z,28
2017-01-16T07:14:50.959Z,32
2017-01-16T07:15:31.405Z,32
2017-01-16T07:16:11.983Z,32
2017-01-16T07:16:52.515Z,36
2017-01-16T07:17:33.020Z,40
2017-01-16T07:18:13.476Z,40
2017-01-16T07:18:54.004Z,48
2017-01-16T07:19:35.450Z,52
2017-01-16T07:20:16.058Z,56
2017-01-16T07:20:56.549Z,56
2017-01-16T07:21:37.029Z,64
2017-01-16T07:22:17.922Z,68
2017-01-16T07:22:58.455Z,76
2017-01-16T07:23:39.143Z,80
2017-01-16T07:24:19.645Z,84
2017-01-16T07:25:00.194Z,88
2017-01-16T07:25:40.659Z,96
2017-01-16T07:26:21.349Z,104
2017-01-16T07:27:01.970Z,112
2017-01-16T07:27:42.451Z,120
2017-01-16T07:28:23.142Z,124
2017-01-16T07:29:03.626Z,136
2017-01-16T07:29:44.123Z,140
2017-01-16T07:30:24.566Z,152
2017-01-16T07:31:05.122Z,160
2017-01-16T07:31:45.697Z,168
2017-01-16T07:32:26.163Z,180
2017-01-16T07:33:06.660Z,188
2017-01-16T07:33:47.279Z,200
2017-01-16T07:34:27.798Z,212
2017-01-16T07:35:08.316Z,224
2017-01-16T07:35:48.837Z,232
2017-01-16T07:36:29.309Z,244
2017-01-16T07:37:09.832Z,260
2017-01-16T07:37:50.340Z,268
2017-01-16T07:38:30.952Z,284
2017-01-16T07:39:11.435Z,296
2017-01-16T07:39:51.956Z,312
2017-01-16T07:40:32.515Z,324
2017-01-16T07:41:13.040Z,340
2017-01-16T07:41:53.580Z,352
2017-01-16T07:42:34.079Z,368
2017-01-16T07:43:14.649Z,380
2017-01-16T07:43:55.171Z,396
2017-01-16T07:44:35.664Z,408
2017-01-16T07:45:16.123Z,428
2017-01-16T07:45:57.232Z,444
2017-01-16T07:46:37.681Z,456
2017-01-16T07:47:18.228Z,472
2017-01-16T07:47:59.253Z,492
2017-01-16T07:48:39.557Z,516
2017-01-16T07:49:21.082Z,524
2017-01-16T07:50:02.000Z,540
2017-01-16T07:50:42.841Z,572
2017-01-16T07:51:23.187Z,588
2017-01-16T07:52:03.671Z,608
2017-01-16T07:52:44.249Z,620
2017-01-16T07:53:24.758Z,644
2017-01-16T07:54:05.327Z,660
2017-01-16T07:54:45.861Z,676
2017-01-16T07:55:27.149Z,696
2017-01-16T07:56:07.588Z,716
2017-01-16T07:56:48.101Z,732
2017-01-16T07:57:28.633Z,752
2017-01-16T07:58:09.157Z,768
2017-01-16T07:58:50.647Z,788
2017-01-16T07:59:31.244Z,808
2017-01-16T08:00:11.753Z,824
2017-01-16T08:00:53.034Z,840
2017-01-16T08:01:33.526Z,864
2017-01-16T08:02:14.029Z,880
2017-01-16T08:02:54.540Z,896
2017-01-16T08:03:35.028Z,916
2017-01-16T08:04:15.616Z,936
2017-01-16T08:04:56.089Z,952
2017-01-16T08:05:36.785Z,968
2017-01-16T08:06:17.821Z,988
2017-01-16T08:06:58.346Z,1004
2017-01-16T08:07:38.927Z,1020
2017-01-16T08:08:19.573Z,1040
2017-01-16T08:09:00.044Z,1056
2017-01-16T08:09:40.556Z,1076
2017-01-16T08:10:21.046Z,1092
2017-01-16T08:11:02.931Z,1108
2017-01-16T08:11:43.679Z,1124
2017-01-16T08:12:24.163Z,1140
2017-01-16T08:13:04.693Z,1160
2017-01-16T08:13:45.208Z,1176
2017-01-16T08:14:25.758Z,1188
2017-01-16T08:15:06.260Z,1208
2017-01-16T08:15:46.731Z,1224
2017-01-16T08:16:27.317Z,1240
2017-01-16T08:17:07.866Z,1256
2017-01-16T08:17:48.329Z,1268
2017-01-16T08:18:28.844Z,1284
2017-01-16T08:19:09.315Z,1300
2017-01-16T08:19:49.880Z,1312
2017-01-16T08:20:30.512Z,1332
2017-01-16T08:21:11.034Z,1344
2017-01-16T08:21:51.529Z,1360
2017-01-16T08:22:32.022Z,1372
2017-01-16T08:23:12.537Z,1388
2017-01-16T08:23:53.041Z,1400
2017-01-16T08:24:33.593Z,1416
2017-01-16T08:25:14.142Z,1428
2017-01-16T08:25:54.617Z,1444
2017-01-16T08:26:35.182Z,1456
2017-01-16T08:27:15.913Z,1472
2017-01-16T08:27:56.379Z,1484
2017-01-16T08:30:38.473Z,1540
2017-01-16T08:31:19.119Z,1552
2017-01-16T08:31:59.626Z,1564
2017-01-16T08:32:40.891Z,1576
2017-01-16T08:33:21.517Z,1588
2017-01-16T08:34:01.991Z,1600
2017-01-16T08:34:42.488Z,1612
2017-01-16T08:35:23.172Z,1624
2017-01-16T08:36:03.581Z,1636
2017-01-16T08:36:44.124Z,1652
2017-01-16T08:37:24.822Z,1660
2017-01-16T08:38:05.324Z,1672
2017-01-16T08:38:45.947Z,1684
2017-01-16T08:39:26.509Z,1696
2017-01-16T08:40:14.625Z,1708
2017-01-16T08:41:04.914Z,1724
2017-01-16T08:41:46.731Z,1736
2017-01-16T08:42:27.636Z,1744
2017-01-16T08:43:08.131Z,1756
2017-01-16T08:43:48.597Z,1768
2017-01-16T08:44:29.115Z,1776
2017-01-16T08:45:10.050Z,1788
2017-01-16T08:45:50.652Z,1796
2017-01-16T08:46:31.151Z,1812
2017-01-16T08:47:11.640Z,1820
2017-01-16T08:47:52.161Z,1828
2017-01-16T08:48:32.821Z,1840
2017-01-16T08:49:13.212Z,1848
2017-01-16T08:49:53.719Z,1860
2017-01-16T08:50:34.227Z,1868
2017-01-16T08:51:14.763Z,1880
2017-01-16T08:51:55.264Z,1888
2017-01-16T08:52:35.755Z,1900
2017-01-16T08:53:16.223Z,1908
2017-01-16T08:53:56.860Z,1916
2017-01-16T08:54:37.375Z,1928
2017-01-16T08:55:17.980Z,1936
2017-01-16T08:55:58.462Z,1948
2017-01-16T08:56:38.986Z,1952
2017-01-16T08:57:19.486Z,1964
2017-01-16T08:58:00.031Z,1972
2017-01-16T08:58:40.679Z,1984
2017-01-16T08:59:21.169Z,1992
2017-01-16T09:00:01.669Z,2000
2017-01-16T09:00:42.191Z,2012
2017-01-16T09:01:22.676Z,2016
2017-01-16T09:02:03.162Z,2024
2017-01-16T09:02:43.667Z,2032
2017-01-16T09:03:24.167Z,2044
2017-01-16T09:04:04.693Z,2052
2017-01-16T09:04:45.156Z,2060
2017-01-16T09:05:25.653Z,2064
2017-01-16T09:06:06.141Z,2076
2017-01-16T09:06:46.667Z,2084
2017-01-16T09:07:27.212Z,2088
2017-01-16T09:09:46.090Z,2116
2017-01-16T09:10:27.993Z,2120
2017-01-16T09:11:09.549Z,2132
2017-01-16T09:11:50.960Z,2136
2017-01-16T09:14:12.087Z,2164
2017-01-16T09:14:52.266Z,2172
2017-01-16T09:15:34.181Z,2180
2017-01-16T09:16:16.509Z,2184
2017-01-16T09:17:00.681Z,2192
2017-01-16T09:17:42.216Z,2200
2017-01-16T09:18:24.695Z,2204
2017-01-16T09:19:05.781Z,2208
2017-01-16T09:19:47.290Z,2216
2017-01-16T09:20:27.811Z,2224
2017-01-16T09:21:09.283Z,2228
2017-01-16T09:21:49.753Z,2232
2017-01-16T09:22:30.232Z,2240
2017-01-16T09:23:10.782Z,2244
2017-01-16T09:23:51.264Z,2252
2017-01-16T09:24:31.803Z,2256
2017-01-16T09:25:12.290Z,2260
2017-01-16T09:25:52.788Z,2268
2017-01-16T09:26:33.265Z,2272
2017-01-16T09:27:13.777Z,2276
2017-01-16T09:27:54.264Z,2284
2017-01-16T09:28:34.742Z,2288
2017-01-16T09:29:15.993Z,2292
2017-01-16T09:30:00.277Z,2300
2017-01-16T09:30:41.276Z,2304
2017-01-16T09:31:21.750Z,2312
2017-01-16T09:32:02.241Z,2316
2017-01-16T09:32:42.870Z,2320
2017-01-16T09:33:26.185Z,2328
2017-01-16T09:34:06.983Z,2332
2017-01-16T09:34:51.963Z,2340
2017-01-16T09:35:33.803Z,2348
2017-01-16T09:36:14.587Z,2348
2017-01-16T09:36:55.384Z,2356
2017-01-16T09:37:36.088Z,2356
2017-01-16T09:38:16.893Z,2364
2017-01-16T09:39:01.067Z,2368
2017-01-16T09:39:48.302Z,2376
2017-01-16T09:40:36.353Z,2380
2017-01-16T09:41:18.761Z,2384
2017-01-16T09:42:00.520Z,2388
2017-01-16T09:42:42.955Z,2392
2017-01-16T09:43:24.612Z,2396
2017-01-16T09:44:14.067Z,2400
2017-01-16T09:44:56.878Z,2404
2017-01-16T09:45:40.058Z,2408
2017-01-16T09:46:20.871Z,2412
2017-01-16T09:47:01.951Z,2416
2017-01-16T09:47:42.765Z,2420
2017-01-16T09:48:24.208Z,2420
2017-01-16T09:49:04.932Z,2428
2017-01-16T09:49:45.607Z,2428
2017-01-16T09:50:26.387Z,2432
2017-01-16T09:51:07.149Z,2436
2017-01-16T09:51:48.022Z,2440
2017-01-16T09:52:28.952Z,2444
2017-01-16T09:53:09.885Z,2448
2017-01-16T09:53:50.642Z,2444
2017-01-16T09:54:31.408Z,2452
2017-01-16T09:55:12.163Z,2452
2017-01-16T09:55:52.874Z,2456
2017-01-16T09:56:33.587Z,2456
2017-01-16T09:57:14.325Z,2460
2017-01-16T09:57:55.644Z,2464
2017-01-16T09:58:36.283Z,2468
2017-01-16T09:59:17.042Z,2468
2017-01-16T09:59:57.738Z,2472
2017-01-16T10:00:38.387Z,2476
2017-01-16T10:01:19.765Z,2476
2017-01-16T10:02:00.562Z,2484
2017-01-16T10:02:43.554Z,2480
2017-01-16T10:03:27.238Z,2488
2017-01-16T10:04:08.214Z,2488
2017-01-16T10:04:48.947Z,2488
2017-01-16T10:05:29.857Z,2492
2017-01-16T10:06:10.772Z,2492
2017-01-16T10:06:51.633Z,2496
2017-01-16T10:07:32.783Z,2500
2017-01-16T10:08:14.448Z,2500
2017-01-16T10:09:00.981Z,2500
2017-01-16T10:09:43.282Z,2504
2017-01-16T10:10:24.633Z,2508
2017-01-16T10:11:07.373Z,2508
2017-01-16T10:11:48.172Z,2508
2017-01-16T10:12:29.746Z,2512
2017-01-16T10:13:10.570Z,2512
2017-01-16T10:13:52.352Z,2512
2017-01-16T10:14:36.741Z,2516
2017-01-16T10:15:20.906Z,2520
2017-01-16T10:16:01.666Z,2520
2017-01-16T10:16:44.198Z,2520
2017-01-16T10:17:25.823Z,2524
2017-01-16T10:18:09.427Z,2524
2017-01-16T10:18:50.216Z,2524
2017-01-16T10:19:31.570Z,2528
2017-01-16T10:20:12.422Z,2524
2017-01-16T10:20:53.700Z,2528
2017-01-16T10:21:34.413Z,2528
2017-01-16T10:22:15.574Z,2528
2017-01-16T10:22:56.300Z,2528
2017-01-16T10:23:37.986Z,2528
2017-01-16T10:24:19.539Z,2528
2017-01-16T10:25:03.096Z,2528
2017-01-16T10:25:44.184Z,2532
2017-01-16T10:28:00.066Z,2532
2017-01-16T10:28:40.754Z,2528
2017-01-16T10:29:21.485Z,2528
2017-01-16T10:30:02.270Z,2524
2017-01-16T10:30:42.963Z,2528
2017-01-16T10:31:23.669Z,2528
2017-01-16T10:32:05.419Z,2524
2017-01-16T10:32:45.952Z,2524
2017-01-16T10:33:26.696Z,2524
2017-01-16T10:34:07.407Z,2528
2017-01-16T10:34:48.147Z,2524
2017-01-16T10:35:28.905Z,2528
2017-01-16T10:36:09.627Z,2524
2017-01-16T10:36:50.452Z,2520
2017-01-16T10:37:31.152Z,2520
2017-01-16T10:38:11.976Z,2516
2017-01-16T10:38:53.007Z,2516
2017-01-16T10:39:33.867Z,2516
2017-01-16T10:40:14.861Z,2512
2017-01-16T10:40:55.836Z,2512
2017-01-16T10:41:37.608Z,2508
2017-01-16T10:42:18.296Z,2512
2017-01-16T10:42:58.993Z,2512
2017-01-16T10:43:43.295Z,2504
2017-01-16T10:44:23.972Z,2504
2017-01-16T10:45:04.838Z,2504
2017-01-16T10:45:45.514Z,2504
2017-01-16T10:46:26.421Z,2508
2017-01-16T10:47:07.172Z,2512
2017-01-16T10:47:47.866Z,2516
2017-01-16T10:48:28.595Z,2512
2017-01-16T10:49:09.360Z,2524
2017-01-16T10:49:50.064Z,2548
2017-01-16T10:50:30.792Z,2576
2017-01-16T10:51:11.507Z,2608
2017-01-16T10:51:52.413Z,2644
2017-01-16T10:52:33.125Z,2672
2017-01-16T10:53:13.844Z,2696
2017-01-16T10:53:54.584Z,2720
2017-01-16T10:54:35.433Z,2736
2017-01-16T10:55:16.131Z,2764
2017-01-16T10:55:56.771Z,2780
2017-01-16T10:56:37.547Z,2800
2017-01-16T10:57:18.265Z,2812
2017-01-16T10:57:59.111Z,2828
2017-01-16T10:58:39.774Z,2844
2017-01-16T10:59:20.539Z,2856
2017-01-16T11:00:01.107Z,2868
2017-01-16T11:00:41.737Z,2880
2017-01-16T11:01:22.426Z,2896
2017-01-16T11:02:03.200Z,2904
2017-01-16T11:02:43.905Z,2924
2017-01-16T11:03:24.501Z,2936
2017-01-16T11:04:05.575Z,2944
2017-01-16T11:04:46.257Z,2956
2017-01-16T11:05:27.005Z,2964
2017-01-16T11:06:07.672Z,2976
2017-01-16T11:06:49.444Z,2988
2017-01-16T11:07:30.087Z,2996
2017-01-16T11:08:10.779Z,3008
2017-01-16T11:08:51.701Z,3020
2017-01-16T11:09:32.521Z,3036
2017-01-16T11:10:13.329Z,3044
2017-01-16T11:10:54.090Z,3068
2017-01-16T11:11:34.848Z,3076
2017-01-16T11:12:15.659Z,3088
2017-01-16T11:12:56.447Z,3096
2017-01-16T11:13:37.140Z,3104
2017-01-16T11:14:20.846Z,3120
2017-01-16T11:15:06.143Z,3128
2017-01-16T11:15:46.922Z,3144
2017-01-16T11:16:27.826Z,3152
2017-01-16T11:17:08.593Z,3164
2017-01-16T11:17:49.358Z,3176
2017-01-16T11:18:30.003Z,3192
2017-01-16T11:19:10.672Z,3196
2017-01-16T11:19:51.328Z,3208
2017-01-16T11:20:31.995Z,3220
2017-01-16T11:21:12.883Z,3228
2017-01-16T11:21:54.305Z,3232
2017-01-16T11:22:34.990Z,3244
2017-01-16T11:23:15.797Z,3252
2017-01-16T11:23:56.473Z,3256
2017-01-16T11:24:37.197Z,3268
2017-01-16T11:25:17.800Z,3276
2017-01-16T11:25:59.971Z,3284
2017-01-16T11:26:42.339Z,3304
2017-01-16T11:27:23.017Z,3312
2017-01-16T11:28:03.695Z,3320
2017-01-16T11:28:44.232Z,3320
2017-01-16T11:29:24.723Z,3328
2017-01-16T11:30:05.200Z,3336
2017-01-16T11:30:46.144Z,3344
2017-01-16T11:31:26.624Z,3356
2017-01-16T11:32:07.249Z,3360
2017-01-16T11:32:47.975Z,3368
2017-01-16T11:33:28.715Z,3372
2017-01-16T11:34:09.335Z,3372
2017-01-16T11:34:50.101Z,3388
2017-01-16T11:35:30.826Z,3404
2017-01-16T11:36:11.539Z,3416
2017-01-16T11:36:52.262Z,3424
2017-01-16T11:37:32.860Z,3424
2017-01-16T11:38:13.578Z,3428
2017-01-16T11:38:54.265Z,3436
2017-01-16T11:39:34.999Z,3440
2017-01-16T11:40:15.848Z,3448
2017-01-16T11:40:56.649Z,3460
2017-01-16T11:41:37.300Z,3472
2017-01-16T11:42:18.121Z,3472
2017-01-16T11:43:02.076Z,3476
2017-01-16T11:43:44.260Z,3480
2017-01-16T11:44:25.154Z,3480
2017-01-16T11:45:06.007Z,3484
2017-01-16T11:45:46.791Z,3488
2017-01-16T11:46:27.525Z,3488
2017-01-16T11:47:08.295Z,3484
2017-01-16T11:47:49.029Z,3496
2017-01-16T11:48:29.729Z,3500
2017-01-16T11:49:10.401Z,3508
2017-01-16T11:49:51.052Z,3512
2017-01-16T11:50:31.743Z,3508
2017-01-16T11:51:12.435Z,3516
2017-01-16T11:51:53.079Z,3516
2017-01-16T11:52:33.838Z,3524
2017-01-16T11:53:14.541Z,3524
2017-01-16T11:53:55.994Z,3524
2017-01-16T11:54:36.790Z,3528
2017-01-16T11:55:17.609Z,3528
2017-01-16T11:55:59.035Z,3532
2017-01-16T11:56:39.709Z,3540
2017-01-16T11:57:20.362Z,3544
2017-01-16T11:58:01.046Z,3552
2017-01-16T11:58:41.788Z,3548